Time;durP1;ratioP1;P1;durP2;ratioP2;P2;SDS_P1;SDS_P2;PMS_P1;PMS_P2;Temp;Humidity;BMP_temperature;BMP_pressure;BME280_temperature;BME280_humidity;BME280_pressure;Samples;Min_cycle;Max_cycle;Signal;HPM_P1;HPM_P2
2023/01/30 00:00:52;;;;;;;18.20;4.22;;;;;;;;;;5112577;28;20059;-75
2023/01/30 00:03:19;;;;;;;22.50;4.45;;;;;;;;;;5113004;28;20047;-75
2023/01/30 00:05:47;;;;;;;27.13;4.65;;;;;;;;;;5109023;28;20048;-74
2023/01/30 00:08:15;;;;;;;27.65;5.68;;;;;;;;;;5108933;28;20082;-75
2023/01/30 00:10:42;;;;;;;26.48;5.50;;;;;;;;;;5112229;28;20054;-76
2023/01/30 00:13:10;;;;;;;30.75;5.45;;;;;;;;;;5112101;27;20058;-77
2023/01/30 00:15:37;;;;;;;33.90;6.10;;;;;;;;;;5102677;28;20047;-75
2023/01/30 00:18:05;;;;;;;28.98;6.47;;;;;;;;;;5111335;28;20055;-76
2023/01/30 00:20:32;;;;;;;26.17;6.68;;;;;;;;;;5111352;28;20130;-74
2023/01/30 00:23:01;;;;;;;30.90;6.72;;;;;;;;;;5111664;28;20058;-75
2023/01/30 00:25:28;;;;;;;34.92;7.05;;;;;;;;;;5111664;28;20044;-75
2023/01/30 00:27:55;;;;;;;38.60;7.25;;;;;;;;;;5104397;27;20517;-76
2023/01/30 00:30:23;;;;;;;26.30;6.85;;;;;;;;;;5101517;28;20154;-77
2023/01/30 00:32:54;;;;;;;38.75;7.72;;;;;;;;;;5113844;27;20226;-75
2023/01/30 00:35:21;;;;;;;31.80;8.25;;;;;;;;;;5108699;28;20062;-76
2023/01/30 00:37:48;;;;;;;41.35;7.95;;;;;;;;;;5109340;28;20051;-76
2023/01/30 00:40:17;;;;;;;36.30;7.38;;;;;;;;;;5109100;28;20067;-76
2023/01/30 00:48:14;;;;;;;38.67;9.48;;;;;;;;;;5109728;27;20047;-74
2023/01/30 00:50:44;;;;;;;37.42;7.75;;;;;;;;;;5108962;27;20043;-75
2023/01/30 00:53:11;;;;;;;37.25;8.52;;;;;;;;;;5111194;28;20413;-72
2023/01/30 00:55:40;;;;;;;43.78;9.55;;;;;;;;;;5109741;27;20052;-74
2023/01/30 00:58:07;;;;;;;37.75;9.45;;;;;;;;;;5106572;27;20047;-72
2023/01/30 01:00:35;;;;;;;42.08;9.02;;;;;;;;;;5109456;27;20533;-73
2023/01/30 01:03:02;;;;;;;44.53;8.15;;;;;;;;;;5107552;27;20055;-72
2023/01/30 01:05:29;;;;;;;36.50;7.72;;;;;;;;;;5110680;27;20055;-72
2023/01/30 01:07:57;;;;;;;42.20;8.07;;;;;;;;;;5107910;27;20134;-72
2023/01/30 01:10:24;;;;;;;38.60;8.38;;;;;;;;;;5105034;27;20051;-72
2023/01/30 01:12:53;;;;;;;46.58;8.70;;;;;;;;;;5107877;27;20051;-72
2023/01/30 01:15:20;;;;;;;34.83;8.10;;;;;;;;;;5109906;27;20402;-72
2023/01/30 01:17:47;;;;;;;49.28;8.27;;;;;;;;;;5110206;28;20043;-72
2023/01/30 01:20:15;;;;;;;53.10;8.93;;;;;;;;;;5117030;27;20078;-72
2023/01/30 01:22:42;;;;;;;46.17;9.38;;;;;;;;;;5116752;27;20040;-72
2023/01/30 01:25:10;;;;;;;33.97;8.45;;;;;;;;;;5105449;28;20058;-72
2023/01/30 01:27:37;;;;;;;41.80;8.85;;;;;;;;;;5105124;28;20055;-72
2023/01/30 01:30:06;;;;;;;44.90;7.47;;;;;;;;;;5106793;27;20071;-72
2023/01/30 01:32:34;;;;;;;32.45;7.15;;;;;;;;;;5110395;28;20046;-72
2023/01/30 01:35:01;;;;;;;45.08;6.60;;;;;;;;;;5108316;28;20051;-72
2023/01/30 01:37:28;;;;;;;44.63;6.72;;;;;;;;;;5106942;28;20046;-72
2023/01/30 01:42:40;;;;;;;33.55;5.85;;;;;;;;;;5109056;27;20177;-72
2023/01/30 01:45:20;;;;;;;44.83;6.90;;;;;;;;;;5104486;27;20070;-71
2023/01/30 01:47:49;;;;;;;39.88;5.95;;;;;;;;;;5108989;28;20417;-72
2023/01/30 01:50:20;;;;;;;45.90;6.85;;;;;;;;;;5110065;27;20083;-71
2023/01/30 01:52:48;;;;;;;35.75;6.53;;;;;;;;;;5105577;28;20040;-72
2023/01/30 01:55:16;;;;;;;49.45;6.25;;;;;;;;;;5108794;28;20051;-72
2023/01/30 01:57:46;;;;;;;46.05;6.32;;;;;;;;;;5106875;27;20044;-71
2023/01/30 02:00:15;;;;;;;42.53;6.15;;;;;;;;;;5110642;27;20047;-71
2023/01/30 02:02:46;;;;;;;49.83;5.80;;;;;;;;;;5108785;27;20051;-71
2023/01/30 02:05:16;;;;;;;35.78;5.60;;;;;;;;;;5103252;27;20051;-71
2023/01/30 02:07:45;;;;;;;44.35;6.80;;;;;;;;;;5109653;27;20048;-71
2023/01/30 02:10:15;;;;;;;40.88;5.82;;;;;;;;;;5111272;27;20596;-72
2023/01/30 02:12:43;;;;;;;35.75;5.40;;;;;;;;;;5108240;27;20044;-70
2023/01/30 02:15:10;;;;;;;37.55;5.40;;;;;;;;;;5109254;28;20055;-71
2023/01/30 02:17:37;;;;;;;45.85;5.75;;;;;;;;;;5110257;28;20076;-72
2023/01/30 02:20:11;;;;;;;38.65;5.57;;;;;;;;;;5106846;27;20406;-71
2023/01/30 02:22:47;;;;;;;37.75;6.90;;;;;;;;;;5103886;28;20051;-70
2023/01/30 02:25:30;;;;;;;50.60;6.15;;;;;;;;;;5109590;27;20048;-70
2023/01/30 02:28:16;;;;;;;38.40;6.03;;;;;;;;;;5105251;27;20056;-71
2023/01/30 02:31:08;;;;;;;42.88;6.25;;;;;;;;;;5074040;28;20054;-70
2023/01/30 02:33:40;;;;;;;36.13;5.50;;;;;;;;;;5113473;27;20070;-70
2023/01/30 02:36:11;;;;;;;46.75;6.45;;;;;;;;;;5104647;27;20061;-71
2023/01/30 02:38:42;;;;;;;42.28;5.80;;;;;;;;;;5106926;27;20051;-71
2023/01/30 02:41:14;;;;;;;32.35;5.47;;;;;;;;;;5107127;28;20128;-71
2023/01/30 02:43:45;;;;;;;44.08;5.60;;;;;;;;;;5110466;28;20414;-70
2023/01/30 02:46:16;;;;;;;38.20;6.68;;;;;;;;;;5109561;28;20508;-71
2023/01/30 02:48:46;;;;;;;43.35;6.18;;;;;;;;;;5109934;28;20043;-71
2023/01/30 02:51:17;;;;;;;44.63;6.00;;;;;;;;;;5109410;27;20052;-71
2023/01/30 02:53:47;;;;;;;33.42;5.38;;;;;;;;;;5108697;28;20096;-71
2023/01/30 02:56:14;;;;;;;41.75;4.82;;;;;;;;;;5106995;28;20047;-70
2023/01/30 02:58:43;;;;;;;43.05;5.57;;;;;;;;;;5108189;27;20047;-70
2023/01/30 03:01:19;;;;;;;39.13;5.88;;;;;;;;;;5102653;28;20059;-71
2023/01/30 03:03:55;;;;;;;27.20;3.85;;;;;;;;;;5107418;28;20055;-72
2023/01/30 03:06:31;;;;;;;26.38;4.38;;;;;;;;;;5106493;27;20051;-70
2023/01/30 03:09:04;;;;;;;37.40;6.15;;;;;;;;;;5109189;28;20486;-70
2023/01/30 03:11:37;;;;;;;34.28;4.90;;;;;;;;;;5104944;28;20062;-71
2023/01/30 03:14:09;;;;;;;38.30;5.68;;;;;;;;;;5109530;28;20048;-70
2023/01/30 03:16:39;;;;;;;33.05;5.28;;;;;;;;;;5106237;28;20122;-71
2023/01/30 03:19:07;;;;;;;38.30;4.88;;;;;;;;;;5105186;27;20066;-71
2023/01/30 03:21:34;;;;;;;34.25;4.72;;;;;;;;;;5100927;28;20044;-71
2023/01/30 03:24:01;;;;;;;27.15;4.30;;;;;;;;;;5101208;28;20078;-71
2023/01/30 03:26:31;;;;;;;41.33;5.93;;;;;;;;;;5106707;28;20043;-71
2023/01/30 03:28:58;;;;;;;37.38;4.15;;;;;;;;;;5106373;28;20462;-71
2023/01/30 03:31:25;;;;;;;25.40;3.85;;;;;;;;;;5106728;28;20046;-70
2023/01/30 03:33:54;;;;;;;36.97;4.45;;;;;;;;;;5102956;28;20054;-71
2023/01/30 03:36:21;;;;;;;33.88;4.43;;;;;;;;;;5107850;27;20062;-71
2023/01/30 03:38:49;;;;;;;38.17;4.35;;;;;;;;;;5100272;28;20530;-71
2023/01/30 03:41:16;;;;;;;37.20;4.75;;;;;;;;;;5105082;28;20097;-71
2023/01/30 03:43:43;;;;;;;54.10;5.75;;;;;;;;;;5104538;28;20432;-72
2023/01/30 03:46:10;;;;;;;35.72;5.85;;;;;;;;;;5109461;28;20147;-71
2023/01/30 03:48:37;;;;;;;40.45;5.13;;;;;;;;;;5108448;28;20043;-71
2023/01/30 03:51:06;;;;;;;47.03;5.07;;;;;;;;;;5107621;28;20063;-70
2023/01/30 03:53:33;;;;;;;46.25;6.10;;;;;;;;;;5110748;28;20517;-71
2023/01/30 03:56:01;;;;;;;50.50;6.47;;;;;;;;;;5107855;28;20047;-71
2023/01/30 03:58:28;;;;;;;34.05;4.72;;;;;;;;;;5110100;28;20447;-71
2023/01/30 04:00:56;;;;;;;31.92;4.28;;;;;;;;;;5107852;28;20051;-71
2023/01/30 04:03:24;;;;;;;38.22;3.83;;;;;;;;;;5107747;28;20108;-71
2023/01/30 04:05:51;;;;;;;25.85;3.65;;;;;;;;;;5104875;28;20066;-71
2023/01/30 04:08:19;;;;;;;26.52;3.78;;;;;;;;;;5111026;28;20040;-71
2023/01/30 04:10:47;;;;;;;30.30;3.60;;;;;;;;;;5108973;28;20051;-71
2023/01/30 04:13:14;;;;;;;33.50;3.83;;;;;;;;;;5106720;28;20052;-72
2023/01/30 04:15:41;;;;;;;29.08;3.45;;;;;;;;;;5105168;28;20052;-71
2023/01/30 04:18:08;;;;;;;35.22;4.20;;;;;;;;;;5108282;28;20051;-71
2023/01/30 04:20:35;;;;;;;34.72;4.35;;;;;;;;;;5105648;28;20051;-71
2023/01/30 04:23:03;;;;;;;37.58;5.20;;;;;;;;;;5105923;28;20044;-72
2023/01/30 04:25:31;;;;;;;36.35;4.55;;;;;;;;;;5111709;28;20059;-72
2023/01/30 04:27:58;;;;;;;35.40;4.40;;;;;;;;;;5108277;28;20494;-71
2023/01/30 04:30:26;;;;;;;36.83;4.88;;;;;;;;;;5109230;28;20112;-71
2023/01/30 04:32:53;;;;;;;28.23;3.72;;;;;;;;;;5104299;28;20410;-71
2023/01/30 04:35:20;;;;;;;28.45;3.90;;;;;;;;;;5103990;28;20063;-70
2023/01/30 04:37:47;;;;;;;41.08;4.05;;;;;;;;;;5101831;28;20044;-71
2023/01/30 04:40:15;;;;;;;36.25;4.30;;;;;;;;;;5106693;28;20145;-71
2023/01/30 04:42:43;;;;;;;33.78;5.15;;;;;;;;;;5107307;28;20596;-71
2023/01/30 04:45:11;;;;;;;31.20;4.53;;;;;;;;;;5109455;28;20502;-71
2023/01/30 04:47:38;;;;;;;40.15;4.78;;;;;;;;;;5109674;27;20047;-72
2023/01/30 04:50:06;;;;;;;35.35;4.32;;;;;;;;;;5112352;28;20414;-72
2023/01/30 04:52:33;;;;;;;27.33;3.72;;;;;;;;;;5108867;28;20062;-71
2023/01/30 04:55:00;;;;;;;34.75;4.18;;;;;;;;;;5113294;28;20058;-71
2023/01/30 04:57:27;;;;;;;33.95;4.88;;;;;;;;;;5110957;28;20047;-71
2023/01/30 04:59:56;;;;;;;38.75;4.50;;;;;;;;;;5113364;27;20074;-72
2023/01/30 05:02:23;;;;;;;30.38;3.83;;;;;;;;;;5108279;28;20537;-71
2023/01/30 05:04:50;;;;;;;45.83;5.95;;;;;;;;;;5107098;27;20047;-71
2023/01/30 05:07:19;;;;;;;30.92;5.18;;;;;;;;;;5112969;27;20642;-71
2023/01/30 05:09:46;;;;;;;24.73;4.72;;;;;;;;;;5110954;28;20047;-71
2023/01/30 05:12:13;;;;;;;33.92;4.88;;;;;;;;;;5111925;27;20086;-72
2023/01/30 05:14:40;;;;;;;42.50;4.35;;;;;;;;;;5111233;27;20086;-72
2023/01/30 05:17:09;;;;;;;27.20;3.97;;;;;;;;;;5109978;28;20087;-72
2023/01/30 05:19:36;;;;;;;30.65;4.38;;;;;;;;;;5110123;27;20055;-72
2023/01/30 05:22:03;;;;;;;38.28;4.80;;;;;;;;;;5100612;27;20052;-70
2023/01/30 05:24:31;;;;;;;48.30;5.05;;;;;;;;;;5107092;28;20051;-71
2023/01/30 05:26:58;;;;;;;41.13;4.25;;;;;;;;;;5112427;27;20054;-71
2023/01/30 05:29:25;;;;;;;37.63;5.15;;;;;;;;;;5113248;27;20042;-71
2023/01/30 05:31:52;;;;;;;45.17;5.50;;;;;;;;;;5108539;28;20388;-72
2023/01/30 05:34:21;;;;;;;39.78;5.13;;;;;;;;;;5110979;28;20067;-71
2023/01/30 05:36:48;;;;;;;42.33;5.57;;;;;;;;;;5106286;27;20067;-71
2023/01/30 05:39:15;;;;;;;39.50;4.90;;;;;;;;;;5109436;28;20051;-72
2023/01/30 05:41:42;;;;;;;43.83;4.80;;;;;;;;;;5114302;27;20107;-72
2023/01/30 05:44:10;;;;;;;34.45;5.10;;;;;;;;;;5107797;28;20543;-71
2023/01/30 05:46:37;;;;;;;44.33;5.85;;;;;;;;;;5110117;28;20044;-71
2023/01/30 05:49:06;;;;;;;40.35;5.00;;;;;;;;;;5111279;27;20126;-71
2023/01/30 05:51:34;;;;;;;36.08;5.15;;;;;;;;;;5113780;27;20039;-72
2023/01/30 05:54:02;;;;;;;33.38;4.00;;;;;;;;;;5110576;28;20044;-71
2023/01/30 05:56:31;;;;;;;42.55;5.72;;;;;;;;;;5113810;27;20539;-72
2023/01/30 05:58:59;;;;;;;42.80;5.35;;;;;;;;;;5114360;27;20171;-72
2023/01/30 06:01:27;;;;;;;42.58;4.90;;;;;;;;;;5114282;27;20040;-71
2023/01/30 06:03:55;;;;;;;37.58;5.78;;;;;;;;;;5113386;27;20044;-72
2023/01/30 06:06:22;;;;;;;34.95;4.35;;;;;;;;;;5111092;27;20035;-72
2023/01/30 06:08:54;;;;;;;40.03;4.47;;;;;;;;;;5106960;27;20042;-71
2023/01/30 06:11:22;;;;;;;48.25;5.35;;;;;;;;;;5101762;28;20055;-71
2023/01/30 06:13:49;;;;;;;36.47;4.57;;;;;;;;;;5108147;27;20066;-71
2023/01/30 06:16:17;;;;;;;44.28;5.95;;;;;;;;;;5103856;28;20052;-72
2023/01/30 06:18:45;;;;;;;40.08;4.55;;;;;;;;;;5110046;27;20071;-71
2023/01/30 06:21:14;;;;;;;38.35;4.53;;;;;;;;;;5104471;27;20055;-71
2023/01/30 06:23:41;;;;;;;39.05;4.45;;;;;;;;;;5109798;27;20043;-72
2023/01/30 06:26:10;;;;;;;42.58;4.55;;;;;;;;;;5107032;28;20052;-72
2023/01/30 06:28:37;;;;;;;46.75;4.60;;;;;;;;;;5111076;27;20039;-71
2023/01/30 06:31:06;;;;;;;37.15;5.32;;;;;;;;;;5107765;28;20044;-71
2023/01/30 06:33:33;;;;;;;44.53;5.82;;;;;;;;;;5110186;28;20457;-71
2023/01/30 06:36:00;;;;;;;45.75;5.90;;;;;;;;;;5107522;27;20047;-71
2023/01/30 06:38:28;;;;;;;44.10;5.18;;;;;;;;;;5113673;27;20164;-71
2023/01/30 06:40:55;;;;;;;36.45;4.78;;;;;;;;;;5111382;27;20108;-71
2023/01/30 06:43:23;;;;;;;37.45;4.55;;;;;;;;;;5103832;27;20051;-71
2023/01/30 06:45:51;;;;;;;37.63;5.00;;;;;;;;;;5110210;28;20048;-71
2023/01/30 06:48:18;;;;;;;38.45;4.65;;;;;;;;;;5110131;27;20043;-71
2023/01/30 06:50:47;;;;;;;44.08;5.15;;;;;;;;;;5105562;27;20409;-70
2023/01/30 06:53:14;;;;;;;36.97;4.68;;;;;;;;;;5116532;27;20051;-71
2023/01/30 06:55:42;;;;;;;38.47;4.72;;;;;;;;;;5107185;28;20070;-71
2023/01/30 06:58:10;;;;;;;33.40;5.80;;;;;;;;;;5113025;27;20055;-72
2023/01/30 07:00:39;;;;;;;35.95;4.70;;;;;;;;;;5106127;27;21515;-71
2023/01/30 07:03:07;;;;;;;41.85;5.80;;;;;;;;;;5109880;27;20040;-71
2023/01/30 07:05:35;;;;;;;30.73;4.68;;;;;;;;;;5108621;27;20044;-71
2023/01/30 07:08:02;;;;;;;43.13;6.20;;;;;;;;;;5108163;28;20063;-71
2023/01/30 07:10:31;;;;;;;32.63;4.68;;;;;;;;;;5109387;28;20052;-71
2023/01/30 07:12:58;;;;;;;40.47;5.10;;;;;;;;;;5102363;27;20043;-70
2023/01/30 07:15:25;;;;;;;33.00;4.95;;;;;;;;;;5109342;27;20047;-71
2023/01/30 07:17:54;;;;;;;39.67;5.60;;;;;;;;;;5109088;28;20055;-71
2023/01/30 07:20:21;;;;;;;45.60;6.05;;;;;;;;;;5108328;27;20052;-71
2023/01/30 07:22:51;;;;;;;44.65;5.70;;;;;;;;;;5108537;27;20506;-71
2023/01/30 07:25:19;;;;;;;39.28;5.65;;;;;;;;;;5105006;28;20044;-70
2023/01/30 07:27:50;;;;;;;32.85;4.82;;;;;;;;;;5110560;28;20082;-71
2023/01/30 07:30:18;;;;;;;33.92;4.80;;;;;;;;;;5109431;28;20057;-72
2023/01/30 07:32:45;;;;;;;45.10;4.78;;;;;;;;;;5106860;28;20046;-71
2023/01/30 07:35:14;;;;;;;37.80;5.28;;;;;;;;;;5105309;28;20054;-69
2023/01/30 07:37:41;;;;;;;32.22;4.72;;;;;;;;;;5104103;28;20687;-71
2023/01/30 07:40:09;;;;;;;50.58;4.75;;;;;;;;;;5107697;28;20056;-71
2023/01/30 07:42:36;;;;;;;47.22;5.68;;;;;;;;;;5107691;28;20055;-71
2023/01/30 07:45:04;;;;;;;38.55;5.38;;;;;;;;;;5109433;28;20105;-71
2023/01/30 07:47:31;;;;;;;40.08;4.85;;;;;;;;;;5104385;28;20047;-70
2023/01/30 07:49:58;;;;;;;38.28;4.82;;;;;;;;;;5111005;28;20051;-71
2023/01/30 07:52:27;;;;;;;41.55;5.85;;;;;;;;;;5107821;28;20444;-71
2023/01/30 07:54:54;;;;;;;49.50;5.25;;;;;;;;;;5107920;28;20050;-70
2023/01/30 07:57:21;;;;;;;44.30;6.50;;;;;;;;;;5103219;28;20066;-71
2023/01/30 07:59:49;;;;;;;38.65;5.28;;;;;;;;;;5110845;28;20044;-71
2023/01/30 08:02:16;;;;;;;48.63;5.95;;;;;;;;;;5112962;27;20036;-71
2023/01/30 08:04:44;;;;;;;35.60;4.82;;;;;;;;;;5107409;28;20571;-71
2023/01/30 08:07:11;;;;;;;38.80;4.70;;;;;;;;;;5111240;28;20055;-71
2023/01/30 08:09:39;;;;;;;41.30;6.05;;;;;;;;;;5106811;28;20402;-71
2023/01/30 08:12:07;;;;;;;41.55;4.78;;;;;;;;;;5111395;28;20067;-71
2023/01/30 08:14:34;;;;;;;46.65;5.13;;;;;;;;;;5106520;28;20107;-72
2023/01/30 08:17:01;;;;;;;44.42;5.45;;;;;;;;;;5112894;28;20051;-71
2023/01/30 08:19:28;;;;;;;50.30;6.00;;;;;;;;;;5107453;28;20043;-71
2023/01/30 08:21:56;;;;;;;44.78;5.60;;;;;;;;;;5103981;28;20055;-71
2023/01/30 08:24:23;;;;;;;47.90;5.32;;;;;;;;;;5107497;27;20043;-71
2023/01/30 08:26:51;;;;;;;40.85;4.93;;;;;;;;;;5105930;28;20055;-71
2023/01/30 08:29:19;;;;;;;43.72;5.20;;;;;;;;;;5111300;28;20055;-71
2023/01/30 08:31:46;;;;;;;32.75;5.10;;;;;;;;;;5115665;27;20059;-71
2023/01/30 08:34:13;;;;;;;46.03;6.00;;;;;;;;;;5120098;27;20050;-70
2023/01/30 08:36:40;;;;;;;43.17;6.20;;;;;;;;;;5117352;27;20504;-72
2023/01/30 08:39:08;;;;;;;43.22;4.88;;;;;;;;;;5115249;27;20051;-72
2023/01/30 08:41:35;;;;;;;38.50;4.53;;;;;;;;;;5118767;27;20047;-71
2023/01/30 08:44:04;;;;;;;39.45;5.68;;;;;;;;;;5116614;27;20039;-72
2023/01/30 08:46:31;;;;;;;40.67;5.00;;;;;;;;;;5119883;27;20084;-72
2023/01/30 08:48:58;;;;;;;46.85;5.43;;;;;;;;;;5115000;27;20047;-72
2023/01/30 08:51:25;;;;;;;37.25;5.10;;;;;;;;;;5121913;27;20040;-72
2023/01/30 08:53:52;;;;;;;47.25;7.15;;;;;;;;;;5110470;27;20087;-72
2023/01/30 08:56:20;;;;;;;47.35;5.50;;;;;;;;;;5114213;27;20048;-71
2023/01/30 08:58:48;;;;;;;35.05;5.13;;;;;;;;;;5112554;27;20071;-72
2023/01/30 09:01:16;;;;;;;45.63;5.85;;;;;;;;;;5117407;27;20039;-71
2023/01/30 09:03:44;;;;;;;50.72;6.68;;;;;;;;;;5116853;27;20050;-72
2023/01/30 09:06:11;;;;;;;42.95;6.20;;;;;;;;;;5114412;27;20051;-72
2023/01/30 09:08:39;;;;;;;45.85;6.13;;;;;;;;;;5110058;27;20074;-72
2023/01/30 09:11:06;;;;;;;44.00;5.22;;;;;;;;;;5121411;27;20047;-72
2023/01/30 09:13:35;;;;;;;41.20;5.13;;;;;;;;;;5113227;27;20036;-72
2023/01/30 09:16:03;;;;;;;45.90;5.18;;;;;;;;;;5108790;27;20043;-72
2023/01/30 09:18:31;;;;;;;47.17;5.22;;;;;;;;;;5112635;27;20161;-71
2023/01/30 09:21:03;;;;;;;36.20;4.93;;;;;;;;;;5111095;27;20074;-72
2023/01/30 09:23:30;;;;;;;48.72;6.47;;;;;;;;;;5112777;27;20051;-72
2023/01/30 09:25:59;;;;;;;34.97;4.80;;;;;;;;;;5111240;27;20051;-70
2023/01/30 09:28:26;;;;;;;39.30;6.72;;;;;;;;;;5117298;27;20065;-72
2023/01/30 09:30:53;;;;;;;37.72;5.78;;;;;;;;;;5114769;27;20044;-72
2023/01/30 09:33:21;;;;;;;38.60;4.80;;;;;;;;;;5106191;28;20043;-72
2023/01/30 09:35:49;;;;;;;40.25;5.28;;;;;;;;;;5111312;27;20067;-72
2023/01/30 09:38:17;;;;;;;37.42;5.00;;;;;;;;;;5108964;27;20051;-72
2023/01/30 09:40:48;;;;;;;35.63;4.38;;;;;;;;;;5116220;27;20058;-72
2023/01/30 09:43:21;;;;;;;42.00;5.53;;;;;;;;;;5105120;28;20059;-72
2023/01/30 09:45:56;;;;;;;42.75;4.65;;;;;;;;;;5111076;27;20040;-72
2023/01/30 09:48:26;;;;;;;35.85;4.80;;;;;;;;;;5108477;28;20047;-72
2023/01/30 09:51:01;;;;;;;37.25;4.72;;;;;;;;;;5110365;27;20066;-72
2023/01/30 09:53:32;;;;;;;36.58;5.30;;;;;;;;;;5107404;28;20063;-72
2023/01/30 09:56:00;;;;;;;38.67;5.10;;;;;;;;;;5109468;27;21090;-72
2023/01/30 09:58:32;;;;;;;45.00;5.57;;;;;;;;;;5109958;28;20047;-73
2023/01/30 10:01:05;;;;;;;41.92;5.90;;;;;;;;;;5095220;27;20059;-72
2023/01/30 10:03:37;;;;;;;42.40;5.45;;;;;;;;;;5109275;27;20138;-72
2023/01/30 10:06:08;;;;;;;49.90;6.15;;;;;;;;;;5110487;27;20063;-72
2023/01/30 10:08:46;;;;;;;33.85;4.80;;;;;;;;;;5107511;27;20474;-71
2023/01/30 10:11:18;;;;;;;47.20;5.18;;;;;;;;;;5099495;27;20051;-72
2023/01/30 10:14:03;;;;;;;38.38;5.78;;;;;;;;;;5109376;27;20502;-72
2023/01/30 10:16:35;;;;;;;47.40;6.55;;;;;;;;;;5108379;27;20043;-72
2023/01/30 10:19:13;;;;;;;43.80;6.63;;;;;;;;;;5102481;28;20052;-72
2023/01/30 10:21:46;;;;;;;40.67;5.85;;;;;;;;;;5108727;28;20692;-73
2023/01/30 10:24:18;;;;;;;47.47;6.00;;;;;;;;;;5111977;27;20047;-72
2023/01/30 10:26:45;;;;;;;26.17;3.42;;;;;;;;;;5107361;28;20078;-72
2023/01/30 10:29:14;;;;;;;32.78;4.25;;;;;;;;;;5110362;27;20052;-71
2023/01/30 10:31:44;;;;;;;37.00;4.60;;;;;;;;;;5110065;27;20367;-72
2023/01/30 10:34:13;;;;;;;39.15;5.22;;;;;;;;;;5110959;27;20102;-72
2023/01/30 10:36:41;;;;;;;36.83;5.90;;;;;;;;;;5108222;27;20051;-72
2023/01/30 10:39:19;;;;;;;26.05;3.35;;;;;;;;;;5106942;27;20051;-72
2023/01/30 10:41:52;;;;;;;19.33;2.30;;;;;;;;;;5104743;27;20072;-72
2023/01/30 10:44:23;;;;;;;24.15;3.33;;;;;;;;;;5106215;27;20043;-72
2023/01/30 10:47:05;;;;;;;20.90;2.80;;;;;;;;;;5109737;28;20043;-72
2023/01/30 10:49:38;;;;;;;27.23;2.97;;;;;;;;;;5103694;28;20051;-72
2023/01/30 10:52:13;;;;;;;23.30;2.83;;;;;;;;;;5107822;27;20067;-72
2023/01/30 10:54:44;;;;;;;25.17;4.03;;;;;;;;;;5110365;27;20501;-72
2023/01/30 10:57:18;;;;;;;25.73;4.05;;;;;;;;;;5110069;27;20058;-73
2023/01/30 10:59:50;;;;;;;41.97;5.82;;;;;;;;;;5110857;27;20418;-72
2023/01/30 11:02:24;;;;;;;30.65;4.63;;;;;;;;;;5110887;27;20056;-72
2023/01/30 11:04:56;;;;;;;27.00;4.72;;;;;;;;;;5112479;27;20079;-72
2023/01/30 11:07:23;;;;;;;35.30;5.82;;;;;;;;;;5111134;27;20039;-72
2023/01/30 11:09:52;;;;;;;31.15;4.88;;;;;;;;;;5109440;28;20048;-72
2023/01/30 11:12:19;;;;;;;32.08;4.13;;;;;;;;;;5109960;27;20050;-73
2023/01/30 11:14:55;;;;;;;15.75;2.90;;;;;;;;;;5107481;28;20047;-73
2023/01/30 11:17:28;;;;;;;15.07;2.25;;;;;;;;;;5109717;28;20086;-72
2023/01/30 11:19:56;;;;;;;13.30;2.13;;;;;;;;;;5107586;27;20056;-72
2023/01/30 11:22:25;;;;;;;15.95;1.67;;;;;;;;;;5102967;28;20063;-73
2023/01/30 11:25:02;;;;;;;18.23;2.42;;;;;;;;;;5103327;28;20112;-72
2023/01/30 11:27:30;;;;;;;22.48;3.22;;;;;;;;;;5103020;28;20051;-73
2023/01/30 11:30:04;;;;;;;24.80;3.40;;;;;;;;;;5109341;28;20047;-72
2023/01/30 11:32:31;;;;;;;34.85;4.10;;;;;;;;;;5109862;28;20456;-72
2023/01/30 11:35:04;;;;;;;19.27;3.08;;;;;;;;;;5110565;28;20059;-73
2023/01/30 11:37:32;;;;;;;28.90;2.80;;;;;;;;;;5108110;28;20047;-73
2023/01/30 11:40:08;;;;;;;32.83;3.40;;;;;;;;;;5103770;28;20431;-72
2023/01/30 11:42:35;;;;;;;29.25;3.97;;;;;;;;;;5102735;28;20135;-73
2023/01/30 11:45:02;;;;;;;28.00;4.28;;;;;;;;;;5105677;28;20050;-73
2023/01/30 11:47:29;;;;;;;27.83;3.90;;;;;;;;;;5110527;28;20059;-73
2023/01/30 11:50:01;;;;;;;29.92;5.80;;;;;;;;;;5113446;28;20113;-73
2023/01/30 11:52:29;;;;;;;28.65;4.75;;;;;;;;;;5109007;28;20044;-73
2023/01/30 11:55:00;;;;;;;30.27;4.00;;;;;;;;;;5104273;28;20392;-73
2023/01/30 11:57:28;;;;;;;30.52;3.67;;;;;;;;;;5111759;27;20097;-73
2023/01/30 11:59:56;;;;;;;35.42;3.83;;;;;;;;;;5110086;27;20700;-73
2023/01/30 12:02:25;;;;;;;19.15;3.35;;;;;;;;;;5109843;27;20409;-73
2023/01/30 12:04:54;;;;;;;23.38;4.03;;;;;;;;;;5115272;27;20533;-72
2023/01/30 12:07:22;;;;;;;30.25;3.78;;;;;;;;;;5107233;27;20079;-73
2023/01/30 12:09:50;;;;;;;26.77;3.83;;;;;;;;;;5114383;28;20366;-73
2023/01/30 12:12:29;;;;;;;24.23;3.88;;;;;;;;;;5110799;27;20052;-73
2023/01/30 12:15:01;;;;;;;23.50;3.17;;;;;;;;;;5112305;27;20059;-73
2023/01/30 12:17:35;;;;;;;19.13;2.92;;;;;;;;;;5107086;28;20048;-73
2023/01/30 12:20:04;;;;;;;25.73;3.35;;;;;;;;;;5111442;27;20047;-71
2023/01/30 12:22:34;;;;;;;28.15;3.78;;;;;;;;;;5112608;27;20043;-74
2023/01/30 12:25:02;;;;;;;29.15;3.75;;;;;;;;;;5109852;27;20058;-74
2023/01/30 12:27:37;;;;;;;23.05;3.25;;;;;;;;;;5114522;27;20064;-74
2023/01/30 12:30:09;;;;;;;26.98;3.55;;;;;;;;;;5119393;27;20077;-75
2023/01/30 12:32:36;;;;;;;31.40;4.30;;;;;;;;;;5109595;27;20397;-74
2023/01/30 12:35:14;;;;;;;28.52;5.07;;;;;;;;;;5114647;27;20082;-74
2023/01/30 12:37:46;;;;;;;28.58;4.47;;;;;;;;;;5113823;27;20070;-74
2023/01/30 12:40:24;;;;;;;33.22;4.25;;;;;;;;;;5117814;27;20141;-75
2023/01/30 12:43:13;;;;;;;27.35;4.05;;;;;;;;;;5110455;27;20113;-76
2023/01/30 12:45:42;;;;;;;36.33;5.28;;;;;;;;;;5112548;27;20075;-72
2023/01/30 12:48:27;;;;;;;36.45;4.85;;;;;;;;;;5112366;28;20066;-72
2023/01/30 12:51:00;;;;;;;32.95;5.18;;;;;;;;;;5113349;27;20056;-71
2023/01/30 12:53:32;;;;;;;38.05;6.00;;;;;;;;;;5108797;27;20047;-73
2023/01/30 12:56:16;;;;;;;29.65;4.90;;;;;;;;;;5105162;27;20063;-73
2023/01/30 12:58:48;;;;;;;30.08;4.53;;;;;;;;;;5110955;28;20050;-73
2023/01/30 13:01:23;;;;;;;41.63;5.45;;;;;;;;;;5112603;27;20047;-73
2023/01/30 13:03:54;;;;;;;35.78;4.97;;;;;;;;;;5108376;28;20077;-74
2023/01/30 13:06:32;;;;;;;40.03;6.22;;;;;;;;;;5113145;28;20059;-72
2023/01/30 13:09:10;;;;;;;38.53;5.32;;;;;;;;;;5111256;27;20044;-73
2023/01/30 13:11:42;;;;;;;34.47;5.55;;;;;;;;;;5113936;27;20159;-73
2023/01/30 13:14:16;;;;;;;44.42;6.20;;;;;;;;;;5111118;27;20080;-73
2023/01/30 13:16:49;;;;;;;46.60;6.68;;;;;;;;;;5110108;28;20383;-70
2023/01/30 13:19:21;;;;;;;55.17;6.80;;;;;;;;;;5103497;28;20901;-72
2023/01/30 13:21:54;;;;;;;51.05;7.57;;;;;;;;;;5112375;27;20043;-66
2023/01/30 13:24:24;;;;;;;51.38;6.38;;;;;;;;;;5105035;27;20514;-66
2023/01/30 13:26:53;;;;;;;48.63;6.00;;;;;;;;;;5114248;27;20426;-66
2023/01/30 13:29:26;;;;;;;44.03;6.07;;;;;;;;;;5110612;28;20527;-66
2023/01/30 13:31:55;;;;;;;38.50;5.63;;;;;;;;;;5111935;28;20070;-68
2023/01/30 13:34:26;;;;;;;42.30;6.25;;;;;;;;;;5109692;28;20047;-66
2023/01/30 13:36:55;;;;;;;40.58;5.88;;;;;;;;;;5102036;28;20055;-66
2023/01/30 13:39:25;;;;;;;41.70;5.88;;;;;;;;;;5108114;27;20048;-65
2023/01/30 13:41:53;;;;;;;34.38;4.88;;;;;;;;;;5112310;27;20105;-67
2023/01/30 13:44:24;;;;;;;40.42;6.28;;;;;;;;;;5107655;27;20145;-66
2023/01/30 13:46:52;;;;;;;38.75;6.45;;;;;;;;;;5109522;28;20513;-66
2023/01/30 13:49:23;;;;;;;40.72;5.53;;;;;;;;;;5109271;28;20044;-68
2023/01/30 13:51:52;;;;;;;44.60;5.57;;;;;;;;;;5109494;27;20051;-67
2023/01/30 13:54:38;;;;;;;41.22;5.60;;;;;;;;;;5113581;27;20084;-67
2023/01/30 13:57:11;;;;;;;43.70;6.30;;;;;;;;;;5108349;28;20040;-66
2023/01/30 13:59:54;;;;;;;43.85;5.82;;;;;;;;;;5110506;28;20040;-67
2023/01/30 14:02:23;;;;;;;42.50;6.37;;;;;;;;;;5107817;27;20048;-66
2023/01/30 14:04:51;;;;;;;41.03;5.70;;;;;;;;;;5114368;27;20047;-66
2023/01/30 14:07:23;;;;;;;39.97;5.82;;;;;;;;;;5104865;27;20047;-68
2023/01/30 14:09:52;;;;;;;43.63;6.32;;;;;;;;;;5102334;27;20051;-66
2023/01/30 14:12:20;;;;;;;36.20;5.78;;;;;;;;;;5110021;28;20070;-66
2023/01/30 14:15:00;;;;;;;38.13;5.22;;;;;;;;;;5106603;27;20055;-66
2023/01/30 14:17:28;;;;;;;44.35;6.93;;;;;;;;;;5109395;28;20059;-65
2023/01/30 14:20:00;;;;;;;41.10;5.10;;;;;;;;;;5109016;28;20379;-66
2023/01/30 14:22:31;;;;;;;38.88;5.45;;;;;;;;;;5111132;27;20047;-67
2023/01/30 14:25:16;;;;;;;41.92;6.32;;;;;;;;;;5107871;28;20059;-66
2023/01/30 14:27:43;;;;;;;42.10;6.35;;;;;;;;;;5104954;27;20048;-64
2023/01/30 14:30:26;;;;;;;47.70;5.55;;;;;;;;;;5107092;27;20509;-63
2023/01/30 14:32:55;;;;;;;35.78;5.57;;;;;;;;;;5103836;28;20051;-64
2023/01/30 14:35:25;;;;;;;39.03;6.45;;;;;;;;;;5102853;28;20039;-64
2023/01/30 14:38:07;;;;;;;38.08;5.72;;;;;;;;;;5107080;28;20048;-65
2023/01/30 14:40:36;;;;;;;43.00;6.10;;;;;;;;;;5104615;28;20044;-63
2023/01/30 14:43:37;;;;;;;37.38;5.80;;;;;;;;;;5110167;28;20485;-65
2023/01/30 14:46:06;;;;;;;34.08;5.50;;;;;;;;;;5025872;28;20488;-63
2023/01/30 14:48:36;;;;;;;36.22;5.55;;;;;;;;;;5023402;28;20110;-66
2023/01/30 14:51:17;;;;;;;45.88;5.82;;;;;;;;;;5065192;27;20046;-63
2023/01/30 14:53:49;;;;;;;33.90;5.35;;;;;;;;;;5109119;27;20043;-64